createdAt,value
2022-10-12T00:00:10.084Z,8.2
2022-10-12T00:05:10.086Z,8.2
2022-10-12T00:10:10.097Z,8.3
2022-10-12T00:15:10.304Z,8.4
2022-10-12T00:20:10.101Z,8.4
2022-10-12T00:25:10.095Z,8.4
2022-10-12T00:30:10.086Z,8.3
2022-10-12T00:35:10.092Z,8.3
2022-10-12T00:40:10.083Z,8.2
2022-10-12T00:45:10.085Z,8.2
2022-10-12T00:50:10.085Z,8.1
2022-10-12T00:55:10.088Z,8
2022-10-12T01:00:10.085Z,7.8
2022-10-12T01:05:10.091Z,7.7
2022-10-12T01:10:10.091Z,7.6
2022-10-12T01:15:10.097Z,7.5
2022-10-12T01:20:10.082Z,7.5
2022-10-12T01:25:10.091Z,7.5
2022-10-12T01:30:10.095Z,7.4
2022-10-12T01:35:10.099Z,7.3
2022-10-12T01:40:10.081Z,7.3
2022-10-12T01:45:10.093Z,7.3
2022-10-12T01:50:10.081Z,7.3
2022-10-12T01:55:10.104Z,7.2
2022-10-12T02:00:10.088Z,7.3
2022-10-12T02:05:10.092Z,7.2
2022-10-12T02:10:10.078Z,7.2
2022-10-12T02:15:10.101Z,7.2
2022-10-12T02:20:10.092Z,7.1
2022-10-12T02:25:10.091Z,7.1
2022-10-12T02:30:10.081Z,7
2022-10-12T02:35:10.104Z,7
2022-10-12T02:40:10.109Z,7
2022-10-12T02:45:10.093Z,6.9
2022-10-12T02:50:10.089Z,6.9
2022-10-12T02:55:10.093Z,6.8
2022-10-12T03:00:10.093Z,6.8
2022-10-12T03:05:10.092Z,6.8
2022-10-12T03:10:10.130Z,6.8
2022-10-12T03:15:10.085Z,6.7
2022-10-12T03:20:10.095Z,6.7
2022-10-12T03:25:10.097Z,6.6
2022-10-12T03:30:10.093Z,6.5
2022-10-12T03:35:10.089Z,6.5
2022-10-12T03:40:10.096Z,6.5
2022-10-12T03:45:10.097Z,6.5
2022-10-12T03:50:10.094Z,6.5
2022-10-12T03:55:10.099Z,6.5
2022-10-12T04:00:10.083Z,6.5
2022-10-12T04:05:10.100Z,6.4
2022-10-12T04:10:10.098Z,6.4
2022-10-12T04:15:10.190Z,6.3
2022-10-12T04:20:10.101Z,6.4
2022-10-12T04:25:10.096Z,6.4
2022-10-12T04:30:10.086Z,6.4
2022-10-12T04:35:10.096Z,6.3
2022-10-12T04:40:10.087Z,6.2
2022-10-12T04:45:10.109Z,6.2
2022-10-12T04:50:10.093Z,6.1
2022-10-12T04:55:10.095Z,6
2022-10-12T05:00:10.085Z,5.9
2022-10-12T05:05:10.092Z,5.9
2022-10-12T05:10:10.102Z,5.9
2022-10-12T05:15:10.089Z,5.8
2022-10-12T05:20:10.103Z,5.8
2022-10-12T05:25:10.127Z,5.7
2022-10-12T05:30:10.108Z,5.8
2022-10-12T05:35:10.101Z,5.8
2022-10-12T05:40:10.114Z,5.8
2022-10-12T05:45:10.111Z,5.9
2022-10-12T05:50:10.108Z,6
2022-10-12T05:55:10.111Z,6.1
2022-10-12T06:00:10.110Z,6.3
2022-10-12T06:05:10.104Z,6.5
2022-10-12T06:10:10.091Z,6.7
2022-10-12T06:15:10.120Z,6.8
2022-10-12T06:20:10.097Z,6.8
2022-10-12T06:25:10.096Z,6.9
2022-10-12T06:30:10.098Z,6.9
2022-10-12T06:35:10.096Z,7
2022-10-12T06:40:10.097Z,7.1
2022-10-12T06:45:10.115Z,7.2
2022-10-12T06:50:10.094Z,7.4
2022-10-12T06:55:10.097Z,7.8
2022-10-12T07:00:10.099Z,8.2
2022-10-12T07:05:10.097Z,8.3
2022-10-12T07:10:10.088Z,8.1
2022-10-12T07:15:10.100Z,8.1
2022-10-12T07:20:10.102Z,8.6
2022-10-12T07:25:10.096Z,8.7
2022-10-12T07:30:10.097Z,9.1
2022-10-12T07:35:10.099Z,9.3
2022-10-12T07:40:10.101Z,9.2
2022-10-12T07:45:10.102Z,9.3
2022-10-12T07:50:10.095Z,9.3
2022-10-12T07:55:10.101Z,9.4
2022-10-12T08:00:10.090Z,9.7
2022-10-12T08:05:10.105Z,9.3
2022-10-12T08:10:10.096Z,9.5
2022-10-12T08:15:10.100Z,9.6
2022-10-12T08:20:10.096Z,10
2022-10-12T08:25:10.100Z,10.4
2022-10-12T08:30:10.091Z,10.3
2022-10-12T08:35:10.094Z,10.6
2022-10-12T08:40:10.095Z,10.9
2022-10-12T08:45:10.122Z,11
2022-10-12T08:50:10.107Z,11.2
2022-10-12T08:55:10.110Z,11.1
2022-10-12T09:00:10.110Z,11.8
2022-10-12T09:05:10.128Z,11.6
2022-10-12T09:10:10.109Z,12
2022-10-12T09:15:10.107Z,12.4
2022-10-12T09:20:10.102Z,12.5
2022-10-12T09:25:10.094Z,12.4
2022-10-12T09:30:10.096Z,13.2
2022-10-12T09:35:10.108Z,13.1
2022-10-12T09:40:10.092Z,13
2022-10-12T09:45:10.104Z,13.6
2022-10-12T09:50:10.092Z,13.3
2022-10-12T09:55:10.156Z,13.3
2022-10-12T10:00:10.097Z,13.2
2022-10-12T10:05:10.107Z,13.9
2022-10-12T10:10:10.112Z,13.7
2022-10-12T10:15:10.109Z,13.7
2022-10-12T10:20:10.097Z,13.8
2022-10-12T10:25:10.099Z,14
2022-10-12T10:30:18.121Z,14.4
2022-10-12T10:35:10.111Z,14.8
2022-10-12T10:40:10.100Z,14
2022-10-12T10:45:10.100Z,14.2
2022-10-12T10:50:10.096Z,14.2
2022-10-12T10:55:10.104Z,14.7
2022-10-12T11:00:37.721Z,15
2022-10-12T11:05:10.098Z,15
2022-10-12T11:10:10.097Z,14.5
2022-10-12T11:15:10.102Z,14.8
2022-10-12T11:20:10.092Z,14.7
2022-10-12T11:25:10.105Z,15.3
2022-10-12T11:30:10.286Z,14.9
2022-10-12T11:35:10.111Z,15.1
2022-10-12T11:40:10.099Z,15.5
2022-10-12T11:45:10.099Z,15.7
2022-10-12T11:50:10.094Z,15.7
2022-10-12T11:55:10.109Z,15.9
2022-10-12T12:00:10.102Z,15.9
2022-10-12T12:05:14.086Z,16.3
2022-10-12T12:10:10.100Z,16.4
2022-10-12T12:15:10.103Z,16
2022-10-12T12:20:10.106Z,16.1
2022-10-12T12:25:10.105Z,16.2
2022-10-12T12:30:10.097Z,16.6
2022-10-12T12:35:10.106Z,16.3
2022-10-12T12:40:10.091Z,16.7
2022-10-12T12:45:10.106Z,16.8
2022-10-12T12:50:10.091Z,17.1
2022-10-12T12:55:10.096Z,16.9
2022-10-12T13:00:10.095Z,17.1
2022-10-12T13:05:10.089Z,17.5
2022-10-12T13:10:10.097Z,17.5
2022-10-12T13:15:10.096Z,17.6
2022-10-12T13:20:10.099Z,17.5
2022-10-12T13:25:10.098Z,17.6
2022-10-12T13:30:10.089Z,17.6
2022-10-12T13:35:10.101Z,17.8
2022-10-12T13:40:10.099Z,17.8
2022-10-12T13:45:10.108Z,17.8
2022-10-12T13:50:10.104Z,17.8
2022-10-12T13:55:10.100Z,17.6
2022-10-12T14:00:10.100Z,17.7
2022-10-12T14:05:10.119Z,17.6
2022-10-12T14:10:10.094Z,17
2022-10-12T14:15:10.105Z,16.6
2022-10-12T14:20:10.093Z,16.3
2022-10-12T14:25:10.098Z,16.6
2022-10-12T14:30:10.087Z,16.5
2022-10-12T14:35:10.100Z,16.5
2022-10-12T14:40:10.102Z,16
2022-10-12T14:45:10.093Z,16
2022-10-12T14:50:10.092Z,15.8
2022-10-12T14:55:10.096Z,15.8
2022-10-12T15:00:10.102Z,15.7
2022-10-12T15:05:10.112Z,15.7
2022-10-12T15:10:10.106Z,15.9
2022-10-12T15:15:10.097Z,16.3
2022-10-12T15:20:10.095Z,16.2
2022-10-12T15:25:10.091Z,16
2022-10-12T15:30:10.100Z,16
2022-10-12T15:35:10.118Z,15.9
2022-10-12T15:40:10.106Z,15.9
2022-10-12T15:45:10.099Z,15.8
2022-10-12T15:50:10.110Z,15.7
2022-10-12T15:55:10.093Z,15.4
2022-10-12T16:00:10.091Z,15.2
2022-10-12T16:05:10.108Z,15.1
2022-10-12T16:10:10.094Z,14.9
2022-10-12T16:15:10.093Z,14.7
2022-10-12T16:20:10.105Z,14.5
2022-10-12T16:25:10.089Z,14.3
2022-10-12T16:30:10.232Z,14.1
2022-10-12T16:35:10.094Z,13.9
2022-10-12T16:40:10.087Z,13.6
2022-10-12T16:45:10.119Z,13.4
2022-10-12T16:50:10.110Z,13.3
2022-10-12T16:55:10.106Z,13.3
2022-10-12T17:00:10.107Z,13.1
2022-10-12T17:05:10.111Z,12.9
2022-10-12T17:10:10.099Z,12.9
2022-10-12T17:15:10.098Z,12.8
2022-10-12T17:20:10.097Z,12.8
2022-10-12T17:25:10.098Z,12.6
2022-10-12T17:30:10.088Z,12.2
2022-10-12T17:35:10.094Z,12.1
2022-10-12T17:40:10.111Z,11.9
2022-10-12T17:45:10.101Z,11.9
2022-10-12T17:50:10.107Z,11.5
2022-10-12T17:55:24.260Z,11.4
2022-10-12T18:00:10.091Z,11.2
2022-10-12T18:05:10.102Z,11.2
2022-10-12T18:10:10.100Z,11.1
2022-10-12T18:15:10.101Z,11
2022-10-12T18:20:10.091Z,11
2022-10-12T18:25:10.096Z,10.9
2022-10-12T18:30:10.094Z,10.8
2022-10-12T18:35:10.098Z,10.7
2022-10-12T18:40:10.093Z,10.8
2022-10-12T18:45:10.098Z,10.8
2022-10-12T18:50:10.100Z,10.8
2022-10-12T18:55:10.110Z,10.7
2022-10-12T19:00:10.091Z,10.6
2022-10-12T19:05:10.104Z,10.6
2022-10-12T19:10:10.099Z,10.5
2022-10-12T19:15:10.098Z,10.5
2022-10-12T19:20:10.089Z,10.5
2022-10-12T19:25:10.100Z,10.4
2022-10-12T19:30:10.100Z,10.4
2022-10-12T19:35:10.102Z,10.4
2022-10-12T19:40:10.094Z,10.4
2022-10-12T19:45:10.105Z,10.4
2022-10-12T19:50:10.117Z,10.5
2022-10-12T19:55:10.106Z,10.5
2022-10-12T20:00:10.095Z,10.4
2022-10-12T20:05:10.103Z,10.5
2022-10-12T20:10:10.092Z,10.3
2022-10-12T20:15:10.124Z,10.3
2022-10-12T20:20:10.107Z,10.4
2022-10-12T20:25:10.148Z,10.4
2022-10-12T20:30:10.099Z,10.4
2022-10-12T20:35:10.104Z,10.4
2022-10-12T20:40:10.087Z,10.4
2022-10-12T20:45:10.094Z,10.4
2022-10-12T20:50:10.099Z,10.3
2022-10-12T20:55:10.097Z,10.2
2022-10-12T21:00:10.100Z,10.2
2022-10-12T21:05:10.108Z,10
2022-10-12T21:10:10.094Z,9.9
2022-10-12T21:15:10.092Z,9.7
2022-10-12T21:20:10.106Z,9.7
2022-10-12T21:25:10.097Z,9.7
2022-10-12T21:30:10.103Z,9.8
2022-10-12T21:35:10.109Z,9.6
2022-10-12T21:40:10.112Z,9.6
2022-10-12T21:45:10.095Z,9.5
2022-10-12T21:50:10.095Z,9.7
2022-10-12T21:55:10.111Z,9.7
2022-10-12T22:00:10.097Z,9.7
2022-10-12T22:05:10.095Z,9.8
2022-10-12T22:10:10.098Z,10.2
2022-10-12T22:15:10.101Z,10.2
2022-10-12T22:20:10.088Z,10.4
2022-10-12T22:25:10.101Z,10.4
2022-10-12T22:30:10.091Z,10.6
2022-10-12T22:35:10.100Z,10.7
2022-10-12T22:40:10.097Z,10.8
2022-10-12T22:45:10.113Z,10.8
2022-10-12T22:50:10.088Z,10.8
2022-10-12T22:55:10.114Z,10.7
2022-10-12T23:00:10.100Z,10.6
2022-10-12T23:05:10.104Z,10.1
2022-10-12T23:10:10.101Z,9.9
2022-10-12T23:15:10.109Z,9.6
2022-10-12T23:20:10.098Z,9.4
2022-10-12T23:25:10.094Z,9.3
2022-10-12T23:30:10.101Z,9.1
2022-10-12T23:35:10.104Z,9
2022-10-12T23:40:10.091Z,8.9
2022-10-12T23:45:10.101Z,9
2022-10-12T23:50:10.103Z,8.9
2022-10-12T23:55:10.092Z,8.9
